首页
METAR-TAF:

METAR-TAF

机场 :

蒙特利尔-米拉贝勒国际机场

蒙特利尔米拉贝尔, 魁北克, 加拿大

纬度: 45-41N, 经度: 074-02W, 海拔: 82米

当前天气观测

该预报发布于1小时和11分钟前的23:00 UTC
风速2节,风向东南
温度 22°C
湿度 50%
气压 1010 hPa
能見度: 72.4公里
多云层高于24000英尺

METAR: CYMX 242300Z 13002KT 45SM BKN240 22/11 A2982 RMK CI7 SLP099 DENSITY ALT 1300FT

时间: 20:11 (00:11 UTC)

预报

该预报发布于33分钟前的23:38 UTC
预报有效从25日的 00点(UTC)到 25日的 24点(UTC)
风速3节,风向多变
能見度: 10公里
少量云层高于16000英尺
多云层高于25000英尺
从 25日的 0800点(UTC)
风速6节,风向东转东北
能見度: 10公里
多云层高于8000英尺
阴天层高于20000英尺
从 25日的 1100点(UTC)
风速6节,风向东转东北
能見度: 10公里
阴天层高于5000英尺
小阵雨
从 25日的 1200点(UTC)
风速8节,风向东转东北
能見度: 10公里
多云层高于2500英尺
阴天层高于5000英尺
小阵雨
短暂存在
从 25日的 12点(UTC)到 25日的 17点(UTC)
能見度: 4.8公里
阴天层高于1500英尺, 积雨云.
阵雨, 轻雾, 附近有雷暴
成为
从 25日的 14点(UTC)到 25日的 16点(UTC)
风速12节,风向
从 25日的 2000点(UTC)
风速10节,风向南转南东
能見度: 10公里
多云层高于1000英尺
阴天层高于4000英尺
小阵雨
从 25日的 2200点(UTC)
风速3节,风向多变
能見度: 10公里
多云层高于1200英尺
阴天层高于4000英尺
小阵雨

TAF: CYMX 242338Z 2500/2524 VRB03KT P6SM FEW160 BKN250 FM250800 06006KT P6SM BKN080 OVC200 FM251100 07006KT P6SM -SHRA OVC050 FM251200 07008KT P6SM -SHRA BKN025 OVC050 TEMPO 2512/2517 3SM SHRA BR VCTS OVC015CB BECMG 2514/2516 08012KT FM252000 15010KT P6SM -SHRA BKN010 OVC040 FM252200 VRB03KT P6SM -SHRA BKN012 OVC040 RMK NXT FCST BY 250600Z

超过4000个机场的气象观测和天气预报(METAR&TAF报告)。

可查询的气象台以黄色和红色小点在地图上表示。

将鼠标移到小点上方,可查看气象台名称。

然后点击查看天气观测和预报。

如需切换地图:点击带黑十字的绿色按钮放大地图;点击带横线的绿色按钮缩小地图;或者点击绿色箭头查看邻近地区的地图。


METAR-TAF: